Enontekio, Enontekio Airport (EFET)

NameEnontekio Airport
CityEnontekio
CountryFinland
ICAOEFET
IATAENF
Altitude306 m
CoordinatesGoogle Map
Live Air TrafficLiveATC.net
METAREFET 251720Z AUTO 33012KT 300V360 9999 FEW021 M01/M05 Q0996 REFZRA
2020-04-25 17:20:00 Wind: Northwest (330°) 6.17 m/s - Visibility: > 10000 m - Temperature: -1 °C - Dew point: -5 °C - Humidity: 74.6% - Pressure: 0996 hPa

Sorry, no flights used the airport in this database.